Time;durP1;ratioP1;P1;durP2;ratioP2;P2;SDS_P1;SDS_P2;PMS_P1;PMS_P2;Temp;Humidity;BMP_temperature;BMP_pressure;BME280_temperature;BME280_humidity;BME280_pressure;Samples;Min_cycle;Max_cycle;Signal;HPM_P1;HPM_P2
2022/10/20 00:01:40;;;;;;;0.07;0.07;;;11.40;99.90;;;;;;5076870;28;20684;-80
2022/10/20 00:04:06;;;;;;;0.10;0.10;;;11.40;99.90;;;;;;5061292;28;20189;-79
2022/10/20 00:06:33;;;;;;;0.07;0.07;;;11.40;99.90;;;;;;5061367;28;20689;-80
2022/10/20 00:09:00;;;;;;;0.10;0.10;;;11.40;99.90;;;;;;5076196;28;20207;-81
2022/10/20 00:11:27;;;;;;;0.00;0.00;;;11.30;99.90;;;;;;5062159;28;20292;-81
2022/10/20 00:13:54;;;;;;;0.10;0.10;;;11.30;99.90;;;;;;5059667;28;20193;-79
2022/10/20 00:16:21;;;;;;;0.00;0.00;;;11.30;99.90;;;;;;5060335;28;20209;-80
2022/10/20 00:18:46;;;;;;;0.10;0.10;;;11.30;99.90;;;;;;5060404;28;20188;-80
2022/10/20 00:21:21;;;;;;;0.00;0.00;;;11.20;99.90;;;;;;5060592;28;20212;-79
2022/10/20 00:23:47;;;;;;;0.10;0.10;;;11.20;99.90;;;;;;5057122;28;20191;-79
2022/10/20 00:26:19;;;;;;;0.00;0.00;;;11.20;99.90;;;;;;5061591;28;20211;-80
2022/10/20 00:28:45;;;;;;;0.10;0.10;;;11.20;99.90;;;;;;5070245;28;20213;-80
2022/10/20 00:31:11;;;;;;;0.10;0.10;;;11.20;99.90;;;;;;5059110;28;20288;-80
2022/10/20 00:33:37;;;;;;;0.10;0.10;;;11.20;99.90;;;;;;5057934;28;20189;-81
2022/10/20 00:36:05;;;;;;;0.10;0.10;;;11.10;99.90;;;;;;5060857;28;20193;-80
2022/10/20 00:38:31;;;;;;;0.10;0.10;;;11.10;99.90;;;;;;5069780;28;20246;-79
2022/10/20 00:40:59;;;;;;;0.10;0.10;;;11.10;99.90;;;;;;5058842;28;20208;-80
2022/10/20 00:44:20;;;;;;;0.10;0.10;;;11.10;99.90;;;;;;5062076;28;20220;-80
2022/10/20 00:46:46;;;;;;;0.10;0.10;;;11.10;99.90;;;;;;4964733;28;20301;-80
2022/10/20 00:49:17;;;;;;;0.00;0.00;;;11.10;99.90;;;;;;5059271;28;20274;-80
2022/10/20 00:51:43;;;;;;;0.10;0.10;;;11.10;99.90;;;;;;5061127;28;20361;-80
2022/10/20 00:54:14;;;;;;;0.10;0.10;;;11.10;99.90;;;;;;5059645;28;20264;-80
2022/10/20 00:56:42;;;;;;;0.00;0.00;;;11.10;99.90;;;;;;5060664;28;20342;-80
2022/10/20 00:59:10;;;;;;;0.10;0.10;;;11.00;99.90;;;;;;5058160;28;20592;-80
2022/10/20 01:01:37;;;;;;;0.10;0.10;;;11.00;99.90;;;;;;5059410;28;20762;-79
2022/10/20 01:04:03;;;;;;;0.10;0.10;;;11.00;99.90;;;;;;5059201;28;20321;-80
2022/10/20 01:06:29;;;;;;;2.53;2.43;;;11.00;99.90;;;;;;5060091;28;20277;-80
2022/10/20 01:08:55;;;;;;;0.00;0.00;;;11.00;99.90;;;;;;5061905;28;20546;-80
2022/10/20 01:12:02;;;;;;;0.00;0.00;;;11.00;99.90;;;;;;5058311;28;20222;-80
2022/10/20 01:14:39;;;;;;;0.07;0.07;;;11.00;99.90;;;;;;5033171;28;20284;-80
2022/10/20 01:17:43;;;;;;;0.00;0.00;;;10.90;99.90;;;;;;5069931;28;20264;-81
2022/10/20 01:20:37;;;;;;;0.10;0.10;;;10.90;99.90;;;;;;5069968;28;20203;-80
2022/10/20 01:23:41;;;;;;;0.10;0.10;;;10.90;99.90;;;;;;5075399;28;20183;-80
2022/10/20 01:26:25;;;;;;;0.00;0.00;;;10.80;99.90;;;;;;5069288;28;20786;-79
2022/10/20 01:28:59;;;;;;;0.00;0.00;;;10.80;99.90;;;;;;5074461;28;20218;-80
2022/10/20 01:31:54;;;;;;;0.00;0.00;;;10.80;99.90;;;;;;5060409;28;20204;-80
2022/10/20 01:35:04;;;;;;;0.10;0.10;;;10.70;99.90;;;;;;5040253;28;20193;-80
2022/10/20 01:37:48;;;;;;;0.10;0.10;;;10.70;99.90;;;;;;5062242;28;20702;-80
2022/10/20 01:40:28;;;;;;;0.10;0.10;;;10.70;99.90;;;;;;5062418;28;20208;-80
2022/10/20 01:42:56;;;;;;;0.10;0.10;;;10.70;99.90;;;;;;5073099;28;20188;-80
2022/10/20 01:45:23;;;;;;;0.10;0.10;;;10.60;99.90;;;;;;5073962;28;20181;-80
2022/10/20 01:47:51;;;;;;;0.10;0.10;;;10.60;99.90;;;;;;5077475;28;20261;-81
2022/10/20 01:50:18;;;;;;;0.10;0.10;;;10.60;99.90;;;;;;5060260;28;20204;-80
2022/10/20 01:52:44;;;;;;;0.00;0.00;;;10.60;99.90;;;;;;5064103;28;20185;-80
2022/10/20 01:55:15;;;;;;;0.10;0.10;;;10.60;99.90;;;;;;5061850;28;20257;-80
2022/10/20 01:57:59;;;;;;;0.10;0.10;;;10.60;99.90;;;;;;5062230;28;20243;-80
2022/10/20 02:00:25;;;;;;;0.10;0.10;;;10.60;99.90;;;;;;5072215;28;20900;-81
2022/10/20 02:03:05;;;;;;;0.10;0.10;;;10.50;99.90;;;;;;5063149;28;20198;-81
2022/10/20 02:05:40;;;;;;;0.20;0.20;;;10.50;99.90;;;;;;5055683;28;20187;-80
2022/10/20 02:08:16;;;;;;;0.10;0.10;;;10.60;99.90;;;;;;5078178;28;20195;-80
2022/10/20 02:10:53;;;;;;;0.00;0.00;;;10.50;99.90;;;;;;5070673;28;20203;-80
2022/10/20 02:13:20;;;;;;;0.10;0.10;;;10.50;99.90;;;;;;5061460;28;20191;-80
2022/10/20 02:15:55;;;;;;;0.10;0.10;;;10.50;99.90;;;;;;5072697;28;20200;-80
2022/10/20 02:18:25;;;;;;;0.00;0.00;;;10.50;99.90;;;;;;5063136;28;20211;-81
2022/10/20 02:20:54;;;;;;;0.00;0.00;;;10.50;99.90;;;;;;5072926;28;20211;-81
2022/10/20 02:23:20;;;;;;;0.00;0.00;;;10.50;99.90;;;;;;5061355;28;20201;-81
2022/10/20 02:25:51;;;;;;;0.10;0.10;;;10.50;99.90;;;;;;5066944;28;20201;-80
2022/10/20 02:28:20;;;;;;;0.27;0.27;;;10.50;99.90;;;;;;5081372;28;20191;-81
2022/10/20 02:30:46;;;;;;;0.10;0.10;;;10.50;99.90;;;;;;5073843;28;20440;-79
2022/10/20 02:33:13;;;;;;;0.20;0.20;;;10.50;99.90;;;;;;5060511;28;20198;-81
2022/10/20 02:35:48;;;;;;;0.10;0.10;;;10.50;99.90;;;;;;5066201;28;20275;-81
2022/10/20 02:38:14;;;;;;;0.10;0.10;;;10.50;99.90;;;;;;5065110;28;20214;-80
2022/10/20 02:40:39;;;;;;;0.10;0.10;;;10.50;99.90;;;;;;5065100;28;20208;-81
2022/10/20 02:43:05;;;;;;;0.10;0.10;;;10.50;99.90;;;;;;5063661;28;20203;-80
2022/10/20 02:45:30;;;;;;;0.00;0.00;;;10.50;99.90;;;;;;5063415;28;20195;-81
2022/10/20 02:47:56;;;;;;;0.10;0.10;;;10.60;99.90;;;;;;5063794;28;20369;-80
2022/10/20 02:50:21;;;;;;;0.87;0.87;;;10.50;99.90;;;;;;5061796;28;20250;-80
2022/10/20 02:52:47;;;;;;;0.00;0.00;;;10.60;99.90;;;;;;5069125;28;20662;-80
2022/10/20 02:55:13;;;;;;;0.00;0.00;;;10.60;99.90;;;;;;5060897;28;20188;-80
2022/10/20 02:57:38;;;;;;;0.00;0.00;;;10.50;99.90;;;;;;5060562;28;20207;-81
2022/10/20 03:00:06;;;;;;;0.10;0.10;;;10.50;99.90;;;;;;5062049;28;20207;-80
2022/10/20 03:02:31;;;;;;;0.00;0.00;;;10.50;99.90;;;;;;5059592;28;20217;-80
2022/10/20 03:04:57;;;;;;;0.00;0.00;;;10.50;99.90;;;;;;5063260;28;20215;-80
2022/10/20 03:07:23;;;;;;;0.10;0.10;;;10.50;99.90;;;;;;5062429;28;20651;-80
2022/10/20 03:09:48;;;;;;;0.10;0.10;;;10.50;99.90;;;;;;5060713;28;20734;-80
2022/10/20 03:12:14;;;;;;;0.10;0.10;;;10.40;99.90;;;;;;5062465;28;20800;-79
2022/10/20 03:14:41;;;;;;;0.00;0.00;;;10.30;99.90;;;;;;5059924;28;20577;-80
2022/10/20 03:17:07;;;;;;;0.00;0.00;;;10.30;99.90;;;;;;5062093;28;20238;-80
2022/10/20 03:19:33;;;;;;;0.07;0.07;;;10.30;99.90;;;;;;5063467;28;20654;-79
2022/10/20 03:21:58;;;;;;;0.10;0.10;;;10.30;99.90;;;;;;5062189;28;21142;-81
2022/10/20 03:24:24;;;;;;;0.03;0.03;;;10.30;99.90;;;;;;5065165;28;20549;-80
2022/10/20 03:26:49;;;;;;;0.03;0.03;;;10.40;99.90;;;;;;5064914;28;20181;-80
2022/10/20 03:29:15;;;;;;;0.20;0.20;;;10.30;99.90;;;;;;5079868;28;20193;-79
2022/10/20 03:31:40;;;;;;;0.23;0.23;;;10.40;99.90;;;;;;5063239;28;20225;-80
2022/10/20 03:34:06;;;;;;;0.10;0.10;;;10.40;99.90;;;;;;5063588;28;20194;-80
2022/10/20 03:36:32;;;;;;;0.10;0.10;;;10.40;99.90;;;;;;5064125;28;20215;-81
2022/10/20 03:38:57;;;;;;;0.10;0.10;;;10.40;99.90;;;;;;5062811;28;20684;-81
2022/10/20 03:41:23;;;;;;;0.10;0.10;;;10.40;99.90;;;;;;5063453;28;20200;-80
2022/10/20 03:43:48;;;;;;;0.10;0.10;;;10.30;99.90;;;;;;5062942;28;20958;-80
2022/10/20 03:46:14;;;;;;;0.00;0.00;;;10.30;99.90;;;;;;5063837;28;21249;-80
2022/10/20 03:48:40;;;;;;;0.03;0.03;;;10.30;99.90;;;;;;5062661;28;20184;-81
2022/10/20 03:51:07;;;;;;;0.00;0.00;;;10.30;99.90;;;;;;5061340;28;20289;-80
2022/10/20 03:53:33;;;;;;;0.00;0.00;;;10.30;99.90;;;;;;5060031;28;20188;-80
2022/10/20 03:56:04;;;;;;;0.10;0.10;;;10.20;99.90;;;;;;5060412;28;20698;-80
2022/10/20 03:58:30;;;;;;;0.00;0.00;;;10.20;99.90;;;;;;5059048;28;20638;-80
2022/10/20 04:00:56;;;;;;;0.00;0.00;;;10.30;99.90;;;;;;5060017;28;20219;-81
2022/10/20 04:03:22;;;;;;;0.03;0.03;;;10.20;99.90;;;;;;5059591;28;20633;-80
2022/10/20 04:05:48;;;;;;;0.10;0.10;;;10.20;99.90;;;;;;5059954;28;20176;-80
2022/10/20 04:08:13;;;;;;;0.10;0.10;;;10.30;99.90;;;;;;5060069;28;20712;-81
2022/10/20 04:10:39;;;;;;;0.10;0.10;;;10.40;99.90;;;;;;5058833;28;20301;-80
2022/10/20 04:13:04;;;;;;;1.30;1.30;;;10.30;99.90;;;;;;5060323;28;20187;-81
2022/10/20 04:15:30;;;;;;;0.10;0.10;;;10.40;99.90;;;;;;5060323;28;20556;-80
2022/10/20 04:17:56;;;;;;;0.10;0.10;;;10.30;99.90;;;;;;5061098;28;20204;-79
2022/10/20 04:20:21;;;;;;;0.00;0.00;;;10.30;99.90;;;;;;5057872;28;20283;-78
2022/10/20 04:22:47;;;;;;;0.10;0.10;;;10.40;99.90;;;;;;5055262;28;20883;-81
2022/10/20 04:25:13;;;;;;;0.00;0.00;;;10.40;99.90;;;;;;5069060;28;20198;-80
2022/10/20 04:27:40;;;;;;;0.10;0.10;;;10.40;99.90;;;;;;5056670;28;20200;-80
2022/10/20 04:30:06;;;;;;;0.00;0.00;;;10.40;99.90;;;;;;5060612;28;20212;-80
2022/10/20 04:32:32;;;;;;;0.00;0.00;;;10.50;99.90;;;;;;5049690;28;20193;-80
2022/10/20 04:34:57;;;;;;;0.00;0.00;;;10.40;99.90;;;;;;5055330;28;20198;-80
2022/10/20 04:37:23;;;;;;;0.10;0.10;;;10.50;99.90;;;;;;5056264;28;20223;-81
2022/10/20 04:39:50;;;;;;;0.10;0.10;;;10.40;99.90;;;;;;5074678;28;20282;-81
2022/10/20 04:42:16;;;;;;;0.10;0.10;;;10.40;99.90;;;;;;5053790;28;20188;-80
2022/10/20 04:44:42;;;;;;;0.10;0.10;;;10.40;99.90;;;;;;5073057;28;20189;-79
2022/10/20 04:47:08;;;;;;;0.10;0.10;;;10.40;99.90;;;;;;5057019;28;20189;-81
2022/10/20 04:49:34;;;;;;;0.30;0.30;;;10.40;99.90;;;;;;5057201;28;20191;-80
2022/10/20 04:52:00;;;;;;;0.10;0.10;;;10.30;99.90;;;;;;5058354;28;20206;-80
2022/10/20 04:54:25;;;;;;;0.10;0.10;;;10.30;99.90;;;;;;5059474;28;20632;-80
2022/10/20 04:56:51;;;;;;;0.10;0.10;;;10.30;99.90;;;;;;5057414;28;20216;-80
2022/10/20 04:59:16;;;;;;;0.10;0.10;;;10.20;99.90;;;;;;5069179;28;20334;-80
2022/10/20 05:01:42;;;;;;;0.10;0.10;;;10.20;99.90;;;;;;5055266;28;20209;-80
2022/10/20 05:04:09;;;;;;;0.00;0.00;;;10.30;99.90;;;;;;5059209;28;20242;-82
2022/10/20 05:06:36;;;;;;;0.10;0.10;;;10.30;99.90;;;;;;5068147;28;20199;-82
2022/10/20 05:09:05;;;;;;;0.10;0.10;;;10.30;99.90;;;;;;5057940;28;20675;-82
2022/10/20 05:11:37;;;;;;;0.00;0.00;;;10.30;99.90;;;;;;5056494;28;20211;-81
2022/10/20 05:14:03;;;;;;;0.00;0.00;;;10.30;99.90;;;;;;5059478;28;20191;-83
2022/10/20 05:16:28;;;;;;;0.10;0.10;;;10.30;99.90;;;;;;5055863;28;20648;-80
2022/10/20 05:18:55;;;;;;;0.00;0.00;;;10.40;99.90;;;;;;5058866;28;20261;-81
2022/10/20 05:21:23;;;;;;;0.10;0.10;;;10.40;99.90;;;;;;5059362;28;20579;-81
2022/10/20 05:23:56;;;;;;;0.10;0.10;;;10.30;99.90;;;;;;5057981;28;20648;-82
2022/10/20 05:26:21;;;;;;;0.10;0.10;;;10.30;99.90;;;;;;5062245;28;20224;-82
2022/10/20 05:28:48;;;;;;;0.10;0.10;;;10.20;99.90;;;;;;5061274;28;20260;-81
2022/10/20 05:31:16;;;;;;;0.10;0.10;;;10.20;99.90;;;;;;5060307;28;20220;-81
2022/10/20 05:33:59;;;;;;;0.10;0.10;;;10.30;99.90;;;;;;5061175;28;21062;-80
2022/10/20 05:36:26;;;;;;;0.10;0.10;;;10.20;99.90;;;;;;5063501;28;20185;-82
2022/10/20 05:38:53;;;;;;;0.10;0.10;;;10.20;99.90;;;;;;5061000;28;20187;-81
2022/10/20 05:41:21;;;;;;;0.10;0.10;;;10.20;99.90;;;;;;5064213;28;21037;-81
2022/10/20 05:43:52;;;;;;;0.10;0.10;;;10.20;99.90;;;;;;5066396;28;20191;-81
2022/10/20 05:46:19;;;;;;;0.00;0.00;;;10.20;99.90;;;;;;5062948;28;20185;-82
2022/10/20 05:48:45;;;;;;;0.00;0.00;;;10.20;99.90;;;;;;5064055;28;20184;-81
2022/10/20 05:51:18;;;;;;;0.10;0.10;;;10.20;99.90;;;;;;5059758;28;20213;-81
2022/10/20 05:53:45;;;;;;;0.10;0.10;;;10.20;99.90;;;;;;5063488;28;20419;-84
2022/10/20 05:56:17;;;;;;;0.10;0.10;;;10.20;99.90;;;;;;5063077;28;20193;-81
2022/10/20 05:58:43;;;;;;;0.10;0.10;;;10.20;99.90;;;;;;5059276;28;20222;-80
2022/10/20 06:01:16;;;;;;;0.00;0.00;;;10.20;99.90;;;;;;5067195;28;20891;-80
2022/10/20 06:03:56;;;;;;;0.10;0.10;;;10.30;99.90;;;;;;5051697;28;20190;-82
2022/10/20 06:06:25;;;;;;;0.00;0.00;;;10.20;99.90;;;;;;5081962;28;20189;-81
2022/10/20 06:08:51;;;;;;;0.10;0.10;;;10.20;99.90;;;;;;5063089;28;20238;-81
2022/10/20 06:11:17;;;;;;;0.10;0.10;;;10.30;99.90;;;;;;5067900;28;20201;-80
2022/10/20 06:13:43;;;;;;;0.10;0.10;;;10.20;99.90;;;;;;5069941;28;20195;-81
2022/10/20 06:16:14;;;;;;;0.10;0.10;;;10.30;99.90;;;;;;5075736;28;20191;-80
2022/10/20 06:18:44;;;;;;;1.67;1.60;;;10.20;99.90;;;;;;5082759;28;20262;-81
2022/10/20 06:21:12;;;;;;;0.00;0.00;;;10.20;99.90;;;;;;5073345;28;20210;-81
2022/10/20 06:23:37;;;;;;;0.00;0.00;;;10.20;99.90;;;;;;5081247;28;20849;-80
2022/10/20 06:26:09;;;;;;;0.10;0.10;;;10.20;99.90;;;;;;5086595;28;20182;-81
2022/10/20 06:28:36;;;;;;;0.60;0.60;;;10.20;99.90;;;;;;5081655;28;20200;-82
2022/10/20 06:31:10;;;;;;;0.00;0.00;;;10.20;99.90;;;;;;5078434;28;20276;-82
2022/10/20 06:33:36;;;;;;;0.03;0.03;;;10.30;99.90;;;;;;5085946;28;20226;-80
2022/10/20 06:36:01;;;;;;;0.10;0.10;;;10.30;99.90;;;;;;5072144;28;20250;-81
2022/10/20 06:38:27;;;;;;;0.10;0.10;;;10.50;99.90;;;;;;5085754;28;20222;-81
2022/10/20 06:40:53;;;;;;;0.00;0.00;;;10.50;99.90;;;;;;5085875;28;20202;-80
2022/10/20 06:43:19;;;;;;;0.07;0.07;;;10.70;99.90;;;;;;5074661;28;20259;-81
2022/10/20 06:45:56;;;;;;;0.10;0.10;;;10.80;99.90;;;;;;5074356;28;20199;-82
2022/10/20 06:48:23;;;;;;;0.00;0.00;;;10.90;99.90;;;;;;5074929;28;20196;-80
2022/10/20 06:50:48;;;;;;;1.03;1.03;;;10.90;99.90;;;;;;5078012;28;20208;-81
2022/10/20 06:53:14;;;;;;;0.07;0.07;;;10.60;99.90;;;;;;5076076;28;20214;-80
2022/10/20 06:55:40;;;;;;;0.10;0.10;;;10.80;99.90;;;;;;5085971;28;20190;-81
2022/10/20 06:58:05;;;;;;;0.00;0.00;;;10.80;99.90;;;;;;5075891;28;20211;-81
2022/10/20 07:00:31;;;;;;;0.10;0.10;;;10.90;99.90;;;;;;5078725;28;20216;-81
2022/10/20 07:02:56;;;;;;;0.10;0.10;;;11.00;99.90;;;;;;5079113;28;20188;-81
2022/10/20 07:05:22;;;;;;;0.10;0.10;;;11.00;99.90;;;;;;5067608;28;20181;-80
2022/10/20 07:07:51;;;;;;;0.10;0.10;;;11.20;99.90;;;;;;5072090;28;20267;-81
2022/10/20 07:10:17;;;;;;;0.10;0.10;;;11.10;99.90;;;;;;5072641;28;20218;-80
2022/10/20 07:12:43;;;;;;;0.10;0.10;;;10.80;99.90;;;;;;5084255;28;20193;-80
2022/10/20 07:15:09;;;;;;;0.10;0.10;;;10.80;99.90;;;;;;5073284;28;20203;-80
2022/10/20 07:17:34;;;;;;;0.00;0.00;;;10.90;99.90;;;;;;5074649;28;20224;-81
2022/10/20 07:20:00;;;;;;;0.00;0.00;;;11.00;99.90;;;;;;5066444;28;20185;-80
2022/10/20 07:22:25;;;;;;;0.10;0.10;;;10.80;99.90;;;;;;5061749;28;20216;-80
2022/10/20 07:24:52;;;;;;;0.10;0.10;;;11.00;99.90;;;;;;5066589;28;20188;-80
2022/10/20 07:27:17;;;;;;;0.10;0.10;;;10.90;99.90;;;;;;5066152;28;20184;-81
2022/10/20 07:29:43;;;;;;;0.10;0.10;;;10.80;99.90;;;;;;5067091;28;20263;-80
2022/10/20 07:32:08;;;;;;;0.10;0.10;;;10.90;99.90;;;;;;5063687;28;20218;-80
2022/10/20 07:34:34;;;;;;;0.10;0.10;;;10.90;99.90;;;;;;5069970;28;20185;-79
2022/10/20 07:36:59;;;;;;;0.10;0.10;;;11.10;99.90;;;;;;5065001;28;20211;-80
2022/10/20 07:39:25;;;;;;;0.00;0.00;;;11.00;99.90;;;;;;5063036;28;20191;-81
2022/10/20 07:41:51;;;;;;;1.10;1.10;;;10.90;99.90;;;;;;5078395;28;20201;-81
2022/10/20 07:44:17;;;;;;;0.00;0.00;;;10.90;99.90;;;;;;5068628;28;20197;-80
2022/10/20 07:46:43;;;;;;;0.53;0.53;;;11.10;99.90;;;;;;5062912;28;20314;-80
2022/10/20 07:49:09;;;;;;;0.10;0.10;;;11.20;99.90;;;;;;5065865;28;20214;-80
2022/10/20 07:51:34;;;;;;;0.10;0.10;;;11.20;99.90;;;;;;5059662;28;20781;-80
2022/10/20 07:54:03;;;;;;;0.07;0.07;;;11.60;99.90;;;;;;5066690;28;20200;-80
2022/10/20 07:56:32;;;;;;;0.10;0.10;;;11.70;99.90;;;;;;5060916;28;20216;-82
2022/10/20 07:58:58;;;;;;;0.20;0.20;;;11.70;99.90;;;;;;5067937;28;20192;-80
2022/10/20 08:01:24;;;;;;;0.00;0.00;;;11.80;99.90;;;;;;5078322;28;20293;-80
2022/10/20 08:03:49;;;;;;;1.17;1.17;;;11.80;99.90;;;;;;5067666;28;20211;-80
2022/10/20 08:06:15;;;;;;;0.10;0.10;;;11.90;99.90;;;;;;5080919;28;20189;-80
2022/10/20 08:08:41;;;;;;;0.10;0.10;;;11.90;99.90;;;;;;5065683;28;20189;-81
2022/10/20 08:11:07;;;;;;;0.50;0.50;;;11.80;99.90;;;;;;5064427;28;20209;-81
2022/10/20 08:13:33;;;;;;;0.10;0.10;;;11.60;99.90;;;;;;5074587;28;20203;-81
2022/10/20 08:15:59;;;;;;;0.10;0.10;;;11.70;99.90;;;;;;5066719;28;20188;-82
2022/10/20 08:18:26;;;;;;;0.10;0.10;;;12.10;99.90;;;;;;5075452;28;20213;-83
2022/10/20 08:20:51;;;;;;;0.10;0.10;;;12.00;99.90;;;;;;5062379;28;20216;-80
2022/10/20 08:23:17;;;;;;;0.10;0.10;;;12.30;99.90;;;;;;5057493;28;20188;-80
2022/10/20 08:25:43;;;;;;;0.10;0.10;;;12.10;99.90;;;;;;5074684;28;20196;-79
2022/10/20 08:28:09;;;;;;;0.10;0.10;;;12.20;99.90;;;;;;5064008;28;20198;-80
2022/10/20 08:30:34;;;;;;;0.10;0.10;;;12.40;99.90;;;;;;5063428;28;20209;-80
2022/10/20 08:33:00;;;;;;;0.00;0.00;;;12.10;99.90;;;;;;5063632;28;20188;-80
2022/10/20 08:35:26;;;;;;;0.10;0.10;;;11.70;99.90;;;;;;5065144;28;20193;-80
2022/10/20 08:37:52;;;;;;;0.03;0.03;;;11.60;99.90;;;;;;5061925;28;20210;-81
2022/10/20 08:40:29;;;;;;;0.00;0.00;;;11.70;99.90;;;;;;5077792;28;20248;-80
2022/10/20 08:42:55;;;;;;;0.20;0.20;;;11.70;99.90;;;;;;5082249;28;20181;-80
2022/10/20 08:45:24;;;;;;;0.10;0.10;;;12.10;99.90;;;;;;5069160;28;20189;-81
2022/10/20 08:47:52;;;;;;;0.10;0.10;;;12.20;99.90;;;;;;5068721;28;20190;-80
2022/10/20 08:50:20;;;;;;;0.10;0.10;;;12.00;99.90;;;;;;5071021;28;20259;-80
2022/10/20 08:52:49;;;;;;;0.10;0.10;;;12.10;99.90;;;;;;5063707;28;20223;-80
2022/10/20 08:55:30;;;;;;;0.10;0.10;;;12.40;99.90;;;;;;5076002;28;20189;-79
2022/10/20 08:58:05;;;;;;;0.10;0.10;;;12.80;99.90;;;;;;5077187;28;20807;-80
2022/10/20 09:00:34;;;;;;;0.10;0.10;;;12.90;99.90;;;;;;5066382;28;20200;-80
2022/10/20 09:03:16;;;;;;;0.73;0.73;;;12.70;99.90;;;;;;5086617;28;20184;-80
2022/10/20 09:05:45;;;;;;;0.10;0.10;;;12.80;99.90;;;;;;5077076;28;20200;-79
2022/10/20 09:08:11;;;;;;;0.10;0.10;;;12.80;99.90;;;;;;5064144;28;20196;-80
2022/10/20 09:10:55;;;;;;;0.10;0.10;;;12.90;99.90;;;;;;5063318;28;20216;-80
2022/10/20 09:13:25;;;;;;;0.10;0.10;;;12.90;99.90;;;;;;5081507;28;20196;-80
2022/10/20 09:15:54;;;;;;;0.10;0.10;;;13.40;99.90;;;;;;5067600;28;20266;-80
2022/10/20 09:18:20;;;;;;;0.10;0.10;;;13.70;99.90;;;;;;5067646;28;21309;-79
2022/10/20 09:20:53;;;;;;;0.20;0.20;;;13.50;99.90;;;;;;5075770;28;20217;-81
2022/10/20 09:23:23;;;;;;;0.10;0.10;;;13.20;99.90;;;;;;5083033;28;20212;-81
2022/10/20 09:25:50;;;;;;;0.10;0.10;;;12.60;99.90;;;;;;5067353;28;20186;-80
2022/10/20 09:28:26;;;;;;;0.03;0.03;;;12.90;99.90;;;;;;5064834;28;20201;-80
2022/10/20 09:30:52;;;;;;;0.00;0.00;;;13.00;99.90;;;;;;5068051;28;20216;-79
2022/10/20 09:33:24;;;;;;;0.10;0.10;;;13.00;99.90;;;;;;5075949;28;20216;-79
2022/10/20 09:35:51;;;;;;;0.10;0.10;;;13.40;99.90;;;;;;5065302;28;20715;-80
2022/10/20 09:38:22;;;;;;;0.10;0.10;;;13.60;99.90;;;;;;5075381;28;20213;-79
2022/10/20 09:40:57;;;;;;;0.10;0.10;;;13.20;99.90;;;;;;5072778;28;20209;-80
2022/10/20 09:43:25;;;;;;;0.10;0.10;;;13.50;99.90;;;;;;5085096;28;20252;-80
2022/10/20 09:45:53;;;;;;;0.07;0.07;;;13.50;99.90;;;;;;5074814;28;20631;-79
2022/10/20 09:48:41;;;;;;;0.10;0.10;;;13.20;99.90;;;;;;5064568;28;20194;-80
2022/10/20 09:51:14;;;;;;;0.10;0.10;;;13.40;99.90;;;;;;5067676;28;20212;-81
2022/10/20 09:54:00;;;;;;;0.10;0.10;;;13.20;99.90;;;;;;5059744;28;20196;-80
2022/10/20 09:56:39;;;;;;;0.10;0.10;;;13.00;99.90;;;;;;5079842;28;20903;-80
2022/10/20 09:59:33;;;;;;;0.10;0.10;;;13.20;99.90;;;;;;5063310;28;20208;-81
2022/10/20 10:02:02;;;;;;;0.00;0.00;;;13.20;99.90;;;;;;5068261;28;20210;-81
2022/10/20 10:04:31;;;;;;;0.07;0.07;;;13.20;99.90;;;;;;5057129;28;20185;-80
2022/10/20 10:06:57;;;;;;;0.07;0.07;;;13.20;99.90;;;;;;5076630;28;20191;-80
2022/10/20 10:09:36;;;;;;;0.10;0.10;;;13.10;99.90;;;;;;5065874;28;20675;-81
2022/10/20 10:12:18;;;;;;;0.10;0.10;;;13.00;99.90;;;;;;5062878;28;20197;-80
2022/10/20 10:14:52;;;;;;;0.00;0.00;;;13.10;99.90;;;;;;5077226;28;20181;-80
2022/10/20 10:17:37;;;;;;;0.10;0.10;;;13.10;99.90;;;;;;5059901;28;20214;-80
2022/10/20 10:20:33;;;;;;;0.00;0.00;;;13.60;99.90;;;;;;5072180;28;20181;-81
2022/10/20 10:23:17;;;;;;;0.10;0.10;;;13.50;99.90;;;;;;5066917;28;20653;-80
2022/10/20 10:25:43;;;;;;;0.10;0.10;;;13.50;99.90;;;;;;5077463;28;20188;-81
2022/10/20 10:28:32;;;;;;;0.10;0.10;;;13.20;99.90;;;;;;5070790;28;20190;-81
2022/10/20 10:31:06;;;;;;;9.27;1.53;;;13.10;99.90;;;;;;5067945;28;20205;-81
2022/10/20 10:33:32;;;;;;;0.03;0.03;;;12.90;99.90;;;;;;5082235;28;20261;-80
2022/10/20 10:36:02;;;;;;;0.10;0.10;;;13.00;99.90;;;;;;5062240;28;20188;-80
2022/10/20 10:38:28;;;;;;;5.10;4.90;;;13.40;99.90;;;;;;5068950;28;20216;-80
2022/10/20 10:41:17;;;;;;;0.10;0.10;;;13.40;99.90;;;;;;5065444;28;20201;-80
2022/10/20 10:43:58;;;;;;;0.10;0.10;;;13.20;99.90;;;;;;5077440;28;20182;-80
2022/10/20 10:46:36;;;;;;;0.10;0.10;;;13.00;99.90;;;;;;5079527;28;20180;-80
2022/10/20 10:49:20;;;;;;;0.10;0.10;;;13.10;99.90;;;;;;5066679;28;20198;-81
2022/10/20 10:51:52;;;;;;;0.10;0.10;;;13.10;99.90;;;;;;5081183;28;20209;-80
2022/10/20 10:54:49;;;;;;;0.10;0.10;;;13.40;99.90;;;;;;5081619;28;20203;-80
2022/10/20 10:57:43;;;;;;;0.10;0.10;;;13.50;99.90;;;;;;5034491;28;20220;-80
2022/10/20 11:00:18;;;;;;;0.07;0.07;;;13.60;99.90;;;;;;5075538;28;20636;-80
2022/10/20 11:03:02;;;;;;;0.10;0.10;;;13.60;99.90;;;;;;5075708;28;20196;-81
2022/10/20 11:05:45;;;;;;;0.00;0.00;;;13.80;99.90;;;;;;5065980;28;20222;-80
2022/10/20 11:08:27;;;;;;;0.10;0.10;;;13.80;99.90;;;;;;5075266;28;20187;-81
2022/10/20 11:11:06;;;;;;;0.10;0.10;;;13.60;99.90;;;;;;5078375;28;20212;-80
2022/10/20 11:14:05;;;;;;;0.50;0.50;;;13.90;99.90;;;;;;5068689;28;20196;-80
2022/10/20 11:16:57;;;;;;;0.10;0.10;;;14.10;99.90;;;;;;5079051;28;20197;-80
2022/10/20 11:19:52;;;;;;;0.10;0.10;;;14.50;99.90;;;;;;5070631;28;20197;-80
2022/10/20 11:22:42;;;;;;;0.10;0.10;;;14.60;99.90;;;;;;5064266;28;20923;-80
2022/10/20 11:25:13;;;;;;;0.00;0.00;;;14.10;99.90;;;;;;5084695;28;20191;-80
2022/10/20 11:27:39;;;;;;;0.00;0.00;;;14.00;99.90;;;;;;5075152;28;20252;-80
2022/10/20 11:30:14;;;;;;;0.30;0.30;;;14.10;99.90;;;;;;5069726;28;20189;-81
2022/10/20 11:33:00;;;;;;;0.00;0.00;;;13.90;99.90;;;;;;5066825;28;20199;-80
2022/10/20 11:35:57;;;;;;;0.50;0.50;;;14.10;99.90;;;;;;5068239;28;20269;-81
2022/10/20 11:38:34;;;;;;;0.10;0.10;;;13.70;99.90;;;;;;5066595;28;20306;-81
2022/10/20 11:41:09;;;;;;;0.10;0.10;;;13.60;99.90;;;;;;5080739;28;20645;-81
2022/10/20 11:43:47;;;;;;;0.10;0.10;;;13.80;99.90;;;;;;5076947;28;20718;-80
2022/10/20 11:46:16;;;;;;;0.10;0.10;;;13.90;99.90;;;;;;5076683;28;20185;-81
2022/10/20 11:48:51;;;;;;;0.00;0.00;;;13.50;99.90;;;;;;5066185;28;20587;-80
2022/10/20 11:51:28;;;;;;;0.10;0.10;;;13.60;99.90;;;;;;5068949;28;20756;-81
2022/10/20 11:54:29;;;;;;;0.10;0.10;;;13.70;99.90;;;;;;5076339;28;20207;-80
2022/10/20 11:57:33;;;;;;;0.10;0.10;;;13.90;99.90;;;;;;5078562;28;20246;-80
2022/10/20 12:00:26;;;;;;;0.10;0.10;;;14.00;99.90;;;;;;5075376;28;20213;-80
2022/10/20 12:03:10;;;;;;;0.10;0.10;;;13.80;99.90;;;;;;5075513;28;20185;-80
2022/10/20 12:05:53;;;;;;;0.10;0.10;;;13.90;99.90;;;;;;5077562;28;20190;-80
2022/10/20 12:08:27;;;;;;;0.10;0.10;;;13.60;99.90;;;;;;5075928;28;20212;-81
2022/10/20 12:11:05;;;;;;;0.00;0.00;;;13.50;99.90;;;;;;5070362;28;20201;-80
2022/10/20 12:13:46;;;;;;;0.10;0.10;;;13.60;99.90;;;;;;5063700;28;20254;-80
2022/10/20 12:16:32;;;;;;;0.10;0.10;;;13.60;99.90;;;;;;5079434;28;20192;-81
2022/10/20 12:19:14;;;;;;;0.10;0.10;;;13.50;99.90;;;;;;5075308;28;20542;-80
2022/10/20 12:21:53;;;;;;;0.10;0.10;;;13.70;99.90;;;;;;5079173;28;20632;-80
2022/10/20 12:24:50;;;;;;;0.10;0.10;;;13.70;99.90;;;;;;5079627;28;20255;-80
2022/10/20 12:27:19;;;;;;;0.10;0.10;;;13.60;99.90;;;;;;5010665;28;20209;-80
2022/10/20 12:29:50;;;;;;;0.10;0.10;;;13.70;99.90;;;;;;5080454;28;20259;-80
2022/10/20 12:32:36;;;;;;;0.10;0.10;;;13.60;99.90;;;;;;5063246;28;20244;-81
2022/10/20 12:35:29;;;;;;;0.00;0.00;;;13.50;99.90;;;;;;5076991;28;20921;-81
2022/10/20 12:38:03;;;;;;;0.10;0.10;;;13.80;99.90;;;;;;5065237;28;20216;-81
2022/10/20 12:40:57;;;;;;;0.10;0.10;;;14.10;99.90;;;;;;5064244;28;20201;-81
2022/10/20 12:43:30;;;;;;;0.10;0.10;;;13.80;99.90;;;;;;5067436;28;20238;-82
2022/10/20 12:46:02;;;;;;;0.07;0.07;;;13.90;99.90;;;;;;5062625;28;20189;-81
2022/10/20 12:48:29;;;;;;;0.10;0.10;;;13.80;99.90;;;;;;5075837;28;20679;-81
2022/10/20 12:51:05;;;;;;;0.10;0.10;;;13.60;99.90;;;;;;5067976;28;20211;-82
2022/10/20 12:53:31;;;;;;;0.10;0.10;;;13.80;99.90;;;;;;5064555;28;20225;-82
2022/10/20 12:56:09;;;;;;;0.10;0.10;;;14.00;99.90;;;;;;5065379;28;20201;-81
2022/10/20 12:58:55;;;;;;;0.10;0.10;;;14.20;99.90;;;;;;5072725;28;20212;-81
2022/10/20 13:01:21;;;;;;;0.10;0.10;;;14.20;99.90;;;;;;5059935;28;20202;-81
2022/10/20 13:03:48;;;;;;;0.10;0.10;;;14.10;99.90;;;;;;5064930;28;20194;-81
2022/10/20 13:06:23;;;;;;;0.10;0.10;;;13.90;99.90;;;;;;5075952;28;20608;-81
2022/10/20 13:09:16;;;;;;;0.10;0.10;;;14.10;99.90;;;;;;5074077;28;20200;-81
2022/10/20 13:11:52;;;;;;;0.10;0.10;;;13.90;99.90;;;;;;5061273;28;20229;-81